sensor_id;sensor_type;location;lat;lon;timestamp;P1;durP1;ratioP1;P2;durP2;ratioP2
27025;SDS011;14565;48.626;8.978;2022-12-17T00:00:06;21.83;;;12.35;;
27025;SDS011;14565;48.626;8.978;2022-12-17T00:03:00;29.65;;;13.55;;
27025;SDS011;14565;48.626;8.978;2022-12-17T00:05:45;22.88;;;12.50;;
27025;SDS011;14565;48.626;8.978;2022-12-17T00:08:30;23.45;;;11.77;;
27025;SDS011;14565;48.626;8.978;2022-12-17T00:11:14;27.27;;;12.43;;
27025;SDS011;14565;48.626;8.978;2022-12-17T00:13:59;23.10;;;11.60;;
27025;SDS011;14565;48.626;8.978;2022-12-17T00:16:43;23.98;;;11.45;;
27025;SDS011;14565;48.626;8.978;2022-12-17T00:19:28;23.02;;;12.20;;
27025;SDS011;14565;48.626;8.978;2022-12-17T00:22:12;20.45;;;11.07;;
27025;SDS011;14565;48.626;8.978;2022-12-17T00:24:57;26.23;;;13.45;;
27025;SDS011;14565;48.626;8.978;2022-12-17T00:27:42;27.30;;;13.77;;
27025;SDS011;14565;48.626;8.978;2022-12-17T00:30:26;30.25;;;15.25;;
27025;SDS011;14565;48.626;8.978;2022-12-17T00:33:11;25.15;;;14.98;;
27025;SDS011;14565;48.626;8.978;2022-12-17T00:35:56;22.63;;;12.20;;
27025;SDS011;14565;48.626;8.978;2022-12-17T00:38:40;24.67;;;13.18;;
27025;SDS011;14565;48.626;8.978;2022-12-17T00:41:25;26.17;;;12.60;;
27025;SDS011;14565;48.626;8.978;2022-12-17T00:44:10;25.27;;;13.27;;
27025;SDS011;14565;48.626;8.978;2022-12-17T00:46:54;22.40;;;12.35;;
27025;SDS011;14565;48.626;8.978;2022-12-17T00:49:39;26.70;;;12.40;;
27025;SDS011;14565;48.626;8.978;2022-12-17T00:52:24;25.45;;;13.05;;
27025;SDS011;14565;48.626;8.978;2022-12-17T00:55:08;30.40;;;14.38;;
27025;SDS011;14565;48.626;8.978;2022-12-17T00:57:53;24.05;;;12.98;;
27025;SDS011;14565;48.626;8.978;2022-12-17T01:00:38;24.67;;;12.43;;
27025;SDS011;14565;48.626;8.978;2022-12-17T01:03:22;29.40;;;12.75;;
27025;SDS011;14565;48.626;8.978;2022-12-17T01:06:07;28.48;;;13.20;;
27025;SDS011;14565;48.626;8.978;2022-12-17T01:08:52;26.77;;;13.07;;
27025;SDS011;14565;48.626;8.978;2022-12-17T01:11:37;26.52;;;12.30;;
27025;SDS011;14565;48.626;8.978;2022-12-17T01:14:22;26.33;;;11.35;;
27025;SDS011;14565;48.626;8.978;2022-12-17T01:17:07;24.65;;;12.15;;
27025;SDS011;14565;48.626;8.978;2022-12-17T01:19:51;25.42;;;11.70;;
27025;SDS011;14565;48.626;8.978;2022-12-17T01:22:36;23.00;;;11.75;;
27025;SDS011;14565;48.626;8.978;2022-12-17T01:25:20;23.85;;;12.30;;
27025;SDS011;14565;48.626;8.978;2022-12-17T01:28:05;23.38;;;11.52;;
27025;SDS011;14565;48.626;8.978;2022-12-17T01:30:49;26.40;;;12.02;;
27025;SDS011;14565;48.626;8.978;2022-12-17T01:33:34;22.13;;;11.30;;
27025;SDS011;14565;48.626;8.978;2022-12-17T01:36:18;25.08;;;10.88;;
27025;SDS011;14565;48.626;8.978;2022-12-17T01:39:03;25.02;;;10.95;;
27025;SDS011;14565;48.626;8.978;2022-12-17T01:41:48;18.88;;;10.05;;
27025;SDS011;14565;48.626;8.978;2022-12-17T01:50:17;18.48;;;8.57;;
27025;SDS011;14565;48.626;8.978;2022-12-17T01:53:02;25.45;;;10.68;;
27025;SDS011;14565;48.626;8.978;2022-12-17T01:55:47;23.75;;;11.02;;
27025;SDS011;14565;48.626;8.978;2022-12-17T01:58:33;27.83;;;11.50;;
27025;SDS011;14565;48.626;8.978;2022-12-17T02:01:19;25.35;;;10.93;;
27025;SDS011;14565;48.626;8.978;2022-12-17T02:04:05;28.23;;;11.30;;
27025;SDS011;14565;48.626;8.978;2022-12-17T02:07:38;28.90;;;11.90;;
27025;SDS011;14565;48.626;8.978;2022-12-17T02:12:44;25.80;;;9.93;;
27025;SDS011;14565;48.626;8.978;2022-12-17T02:15:39;20.35;;;9.65;;
27025;SDS011;14565;48.626;8.978;2022-12-17T02:18:36;21.65;;;9.23;;
27025;SDS011;14565;48.626;8.978;2022-12-17T02:21:23;21.60;;;9.30;;
27025;SDS011;14565;48.626;8.978;2022-12-17T02:24:13;17.25;;;8.57;;
27025;SDS011;14565;48.626;8.978;2022-12-17T02:27:00;21.15;;;8.45;;
27025;SDS011;14565;48.626;8.978;2022-12-17T02:29:50;20.88;;;9.35;;
27025;SDS011;14565;48.626;8.978;2022-12-17T02:32:37;18.70;;;8.73;;
27025;SDS011;14565;48.626;8.978;2022-12-17T02:35:24;15.30;;;8.48;;
27025;SDS011;14565;48.626;8.978;2022-12-17T02:38:15;20.35;;;8.35;;
27025;SDS011;14565;48.626;8.978;2022-12-17T02:41:00;13.90;;;7.03;;
27025;SDS011;14565;48.626;8.978;2022-12-17T02:43:46;14.75;;;6.88;;
27025;SDS011;14565;48.626;8.978;2022-12-17T02:46:30;15.57;;;6.90;;
27025;SDS011;14565;48.626;8.978;2022-12-17T02:49:15;12.00;;;6.45;;
27025;SDS011;14565;48.626;8.978;2022-12-17T02:51:59;12.32;;;6.50;;
27025;SDS011;14565;48.626;8.978;2022-12-17T02:54:44;12.57;;;6.53;;
27025;SDS011;14565;48.626;8.978;2022-12-17T02:57:28;16.50;;;7.32;;
27025;SDS011;14565;48.626;8.978;2022-12-17T03:00:13;15.82;;;6.88;;
27025;SDS011;14565;48.626;8.978;2022-12-17T03:02:58;11.10;;;6.13;;
27025;SDS011;14565;48.626;8.978;2022-12-17T03:05:43;15.02;;;6.63;;
27025;SDS011;14565;48.626;8.978;2022-12-17T03:08:27;17.05;;;8.13;;
27025;SDS011;14565;48.626;8.978;2022-12-17T03:11:12;18.42;;;8.18;;
27025;SDS011;14565;48.626;8.978;2022-12-17T03:13:56;17.42;;;8.15;;
27025;SDS011;14565;48.626;8.978;2022-12-17T03:16:41;16.52;;;7.22;;
27025;SDS011;14565;48.626;8.978;2022-12-17T03:19:26;15.02;;;6.82;;
27025;SDS011;14565;48.626;8.978;2022-12-17T03:22:11;20.15;;;7.63;;
27025;SDS011;14565;48.626;8.978;2022-12-17T03:24:55;14.63;;;7.82;;
27025;SDS011;14565;48.626;8.978;2022-12-17T03:27:40;14.15;;;6.78;;
27025;SDS011;14565;48.626;8.978;2022-12-17T03:30:25;15.88;;;7.13;;
27025;SDS011;14565;48.626;8.978;2022-12-17T03:33:09;15.57;;;7.53;;
27025;SDS011;14565;48.626;8.978;2022-12-17T03:35:54;15.57;;;7.15;;
27025;SDS011;14565;48.626;8.978;2022-12-17T03:38:38;13.25;;;7.10;;
27025;SDS011;14565;48.626;8.978;2022-12-17T03:41:23;16.02;;;7.47;;
27025;SDS011;14565;48.626;8.978;2022-12-17T03:44:08;14.32;;;7.05;;
27025;SDS011;14565;48.626;8.978;2022-12-17T03:46:52;14.20;;;6.43;;
27025;SDS011;14565;48.626;8.978;2022-12-17T03:49:37;14.50;;;6.30;;
27025;SDS011;14565;48.626;8.978;2022-12-17T03:52:21;14.10;;;7.38;;
27025;SDS011;14565;48.626;8.978;2022-12-17T03:55:06;13.45;;;7.38;;
27025;SDS011;14565;48.626;8.978;2022-12-17T03:57:51;25.17;;;7.82;;
27025;SDS011;14565;48.626;8.978;2022-12-17T04:00:35;17.60;;;7.22;;
27025;SDS011;14565;48.626;8.978;2022-12-17T04:03:20;17.08;;;7.78;;
27025;SDS011;14565;48.626;8.978;2022-12-17T04:06:05;16.33;;;8.25;;
27025;SDS011;14565;48.626;8.978;2022-12-17T04:08:49;15.88;;;7.63;;
27025;SDS011;14565;48.626;8.978;2022-12-17T04:11:34;17.55;;;8.07;;
27025;SDS011;14565;48.626;8.978;2022-12-17T04:14:18;14.32;;;7.20;;
27025;SDS011;14565;48.626;8.978;2022-12-17T04:17:03;16.10;;;7.28;;
27025;SDS011;14565;48.626;8.978;2022-12-17T04:19:47;14.75;;;7.13;;
27025;SDS011;14565;48.626;8.978;2022-12-17T04:22:32;20.83;;;8.25;;
27025;SDS011;14565;48.626;8.978;2022-12-17T04:25:17;16.77;;;7.57;;
27025;SDS011;14565;48.626;8.978;2022-12-17T04:28:01;18.80;;;8.40;;
27025;SDS011;14565;48.626;8.978;2022-12-17T04:30:46;15.65;;;8.25;;
27025;SDS011;14565;48.626;8.978;2022-12-17T04:33:30;18.00;;;8.27;;
27025;SDS011;14565;48.626;8.978;2022-12-17T04:36:15;18.08;;;8.43;;
27025;SDS011;14565;48.626;8.978;2022-12-17T04:38:59;16.92;;;8.13;;
27025;SDS011;14565;48.626;8.978;2022-12-17T04:41:46;14.82;;;7.75;;
27025;SDS011;14565;48.626;8.978;2022-12-17T04:44:31;16.70;;;8.10;;
27025;SDS011;14565;48.626;8.978;2022-12-17T04:47:15;15.52;;;7.38;;
27025;SDS011;14565;48.626;8.978;2022-12-17T04:50:00;19.85;;;8.77;;
27025;SDS011;14565;48.626;8.978;2022-12-17T04:52:44;17.88;;;8.27;;
27025;SDS011;14565;48.626;8.978;2022-12-17T04:55:29;17.48;;;7.25;;
27025;SDS011;14565;48.626;8.978;2022-12-17T04:58:13;18.65;;;8.48;;
27025;SDS011;14565;48.626;8.978;2022-12-17T05:00:58;16.40;;;8.15;;
27025;SDS011;14565;48.626;8.978;2022-12-17T05:03:42;18.35;;;9.20;;
27025;SDS011;14565;48.626;8.978;2022-12-17T05:06:27;18.60;;;8.80;;
27025;SDS011;14565;48.626;8.978;2022-12-17T05:09:12;24.45;;;11.38;;
27025;SDS011;14565;48.626;8.978;2022-12-17T05:11:56;39.03;;;15.18;;
27025;SDS011;14565;48.626;8.978;2022-12-17T05:14:41;35.13;;;14.70;;
27025;SDS011;14565;48.626;8.978;2022-12-17T05:17:25;42.67;;;15.10;;
27025;SDS011;14565;48.626;8.978;2022-12-17T05:20:10;35.47;;;14.52;;
27025;SDS011;14565;48.626;8.978;2022-12-17T05:22:54;31.00;;;13.15;;
27025;SDS011;14565;48.626;8.978;2022-12-17T05:25:39;27.92;;;11.45;;
27025;SDS011;14565;48.626;8.978;2022-12-17T05:28:23;19.27;;;10.18;;
27025;SDS011;14565;48.626;8.978;2022-12-17T05:31:08;20.27;;;9.70;;
27025;SDS011;14565;48.626;8.978;2022-12-17T05:33:53;18.55;;;9.00;;
27025;SDS011;14565;48.626;8.978;2022-12-17T05:36:37;19.15;;;9.18;;
27025;SDS011;14565;48.626;8.978;2022-12-17T05:39:22;13.88;;;7.80;;
27025;SDS011;14565;48.626;8.978;2022-12-17T05:42:09;19.02;;;8.40;;
27025;SDS011;14565;48.626;8.978;2022-12-17T05:44:53;16.80;;;8.20;;
27025;SDS011;14565;48.626;8.978;2022-12-17T05:47:38;18.42;;;8.07;;
27025;SDS011;14565;48.626;8.978;2022-12-17T05:50:23;15.77;;;7.25;;
27025;SDS011;14565;48.626;8.978;2022-12-17T05:53:07;17.33;;;7.95;;
27025;SDS011;14565;48.626;8.978;2022-12-17T05:55:52;17.80;;;8.30;;
27025;SDS011;14565;48.626;8.978;2022-12-17T05:58:37;16.55;;;8.10;;
27025;SDS011;14565;48.626;8.978;2022-12-17T06:01:22;16.95;;;8.50;;
27025;SDS011;14565;48.626;8.978;2022-12-17T06:04:08;19.05;;;8.15;;
27025;SDS011;14565;48.626;8.978;2022-12-17T06:06:53;16.15;;;7.82;;
27025;SDS011;14565;48.626;8.978;2022-12-17T06:09:37;18.25;;;7.50;;
27025;SDS011;14565;48.626;8.978;2022-12-17T06:12:22;19.75;;;8.13;;
27025;SDS011;14565;48.626;8.978;2022-12-17T06:15:07;17.40;;;7.43;;
27025;SDS011;14565;48.626;8.978;2022-12-17T06:17:52;17.17;;;8.07;;
27025;SDS011;14565;48.626;8.978;2022-12-17T06:20:37;16.27;;;7.57;;
27025;SDS011;14565;48.626;8.978;2022-12-17T06:23:21;20.13;;;8.02;;
27025;SDS011;14565;48.626;8.978;2022-12-17T06:26:06;16.63;;;8.38;;
27025;SDS011;14565;48.626;8.978;2022-12-17T06:28:51;15.88;;;7.28;;
27025;SDS011;14565;48.626;8.978;2022-12-17T06:31:35;16.30;;;7.82;;
27025;SDS011;14565;48.626;8.978;2022-12-17T06:34:20;21.30;;;8.95;;
27025;SDS011;14565;48.626;8.978;2022-12-17T06:37:04;16.95;;;8.93;;
27025;SDS011;14565;48.626;8.978;2022-12-17T06:39:49;15.52;;;8.15;;
27025;SDS011;14565;48.626;8.978;2022-12-17T06:42:34;20.75;;;8.32;;
27025;SDS011;14565;48.626;8.978;2022-12-17T06:45:18;20.98;;;7.97;;
27025;SDS011;14565;48.626;8.978;2022-12-17T06:48:03;25.33;;;10.32;;
27025;SDS011;14565;48.626;8.978;2022-12-17T06:50:53;22.85;;;9.60;;
27025;SDS011;14565;48.626;8.978;2022-12-17T06:53:38;19.77;;;9.32;;
27025;SDS011;14565;48.626;8.978;2022-12-17T06:56:23;37.03;;;14.18;;
27025;SDS011;14565;48.626;8.978;2022-12-17T06:59:08;40.65;;;14.68;;
27025;SDS011;14565;48.626;8.978;2022-12-17T07:01:52;36.80;;;13.85;;
27025;SDS011;14565;48.626;8.978;2022-12-17T07:04:37;36.97;;;13.77;;
27025;SDS011;14565;48.626;8.978;2022-12-17T07:07:21;39.33;;;14.07;;
27025;SDS011;14565;48.626;8.978;2022-12-17T07:10:06;37.13;;;14.25;;
27025;SDS011;14565;48.626;8.978;2022-12-17T07:12:51;38.78;;;14.55;;
27025;SDS011;14565;48.626;8.978;2022-12-17T07:15:36;53.03;;;15.63;;
27025;SDS011;14565;48.626;8.978;2022-12-17T07:18:20;37.15;;;14.82;;
27025;SDS011;14565;48.626;8.978;2022-12-17T07:21:05;46.58;;;16.25;;
27025;SDS011;14565;48.626;8.978;2022-12-17T07:23:50;48.92;;;14.95;;
27025;SDS011;14565;48.626;8.978;2022-12-17T07:26:34;40.15;;;14.77;;
27025;SDS011;14565;48.626;8.978;2022-12-17T07:29:19;69.95;;;20.95;;
27025;SDS011;14565;48.626;8.978;2022-12-17T07:32:04;105.38;;;34.45;;
27025;SDS011;14565;48.626;8.978;2022-12-17T07:34:48;57.97;;;22.60;;
27025;SDS011;14565;48.626;8.978;2022-12-17T07:37:33;71.93;;;29.38;;
27025;SDS011;14565;48.626;8.978;2022-12-17T07:40:18;54.20;;;23.00;;
27025;SDS011;14565;48.626;8.978;2022-12-17T07:43:13;44.85;;;19.25;;
27025;SDS011;14565;48.626;8.978;2022-12-17T07:45:59;57.28;;;20.48;;
27025;SDS011;14565;48.626;8.978;2022-12-17T07:48:44;53.20;;;21.67;;
27025;SDS011;14565;48.626;8.978;2022-12-17T07:51:28;52.45;;;20.63;;
27025;SDS011;14565;48.626;8.978;2022-12-17T07:54:13;53.15;;;21.23;;
27025;SDS011;14565;48.626;8.978;2022-12-17T07:56:58;64.45;;;24.42;;
27025;SDS011;14565;48.626;8.978;2022-12-17T07:59:42;61.22;;;25.42;;
27025;SDS011;14565;48.626;8.978;2022-12-17T08:02:27;58.28;;;23.98;;
27025;SDS011;14565;48.626;8.978;2022-12-17T08:05:11;50.13;;;21.10;;
27025;SDS011;14565;48.626;8.978;2022-12-17T08:07:56;45.10;;;19.55;;
27025;SDS011;14565;48.626;8.978;2022-12-17T08:10:40;44.20;;;19.13;;
27025;SDS011;14565;48.626;8.978;2022-12-17T08:13:25;45.10;;;18.83;;
27025;SDS011;14565;48.626;8.978;2022-12-17T08:16:09;39.65;;;17.27;;
27025;SDS011;14565;48.626;8.978;2022-12-17T08:18:54;95.05;;;23.55;;
27025;SDS011;14565;48.626;8.978;2022-12-17T08:21:39;71.47;;;22.45;;
27025;SDS011;14565;48.626;8.978;2022-12-17T08:24:23;82.55;;;21.58;;
27025;SDS011;14565;48.626;8.978;2022-12-17T08:27:08;43.28;;;17.45;;
27025;SDS011;14565;48.626;8.978;2022-12-17T08:30:03;64.60;;;16.13;;
27025;SDS011;14565;48.626;8.978;2022-12-17T08:32:48;46.22;;;15.90;;
27025;SDS011;14565;48.626;8.978;2022-12-17T08:35:33;75.57;;;16.58;;
27025;SDS011;14565;48.626;8.978;2022-12-17T08:38:17;53.20;;;16.10;;
27025;SDS011;14565;48.626;8.978;2022-12-17T08:41:02;54.78;;;17.75;;
27025;SDS011;14565;48.626;8.978;2022-12-17T08:43:46;105.18;;;20.40;;
27025;SDS011;14565;48.626;8.978;2022-12-17T08:46:31;78.90;;;18.27;;
27025;SDS011;14565;48.626;8.978;2022-12-17T08:49:15;81.95;;;19.85;;
27025;SDS011;14565;48.626;8.978;2022-12-17T08:52:00;77.10;;;19.17;;
27025;SDS011;14565;48.626;8.978;2022-12-17T08:54:45;92.57;;;18.48;;
27025;SDS011;14565;48.626;8.978;2022-12-17T08:57:29;43.10;;;17.35;;
27025;SDS011;14565;48.626;8.978;2022-12-17T09:00:14;68.75;;;17.52;;
27025;SDS011;14565;48.626;8.978;2022-12-17T09:02:59;52.22;;;18.08;;
27025;SDS011;14565;48.626;8.978;2022-12-17T09:05:44;36.45;;;15.77;;
27025;SDS011;14565;48.626;8.978;2022-12-17T09:08:29;41.85;;;16.10;;
27025;SDS011;14565;48.626;8.978;2022-12-17T09:11:14;34.95;;;15.52;;
27025;SDS011;14565;48.626;8.978;2022-12-17T09:13:58;42.67;;;16.65;;
27025;SDS011;14565;48.626;8.978;2022-12-17T09:16:43;38.33;;;16.13;;
27025;SDS011;14565;48.626;8.978;2022-12-17T09:19:28;54.30;;;15.60;;
27025;SDS011;14565;48.626;8.978;2022-12-17T09:22:13;35.33;;;15.15;;
27025;SDS011;14565;48.626;8.978;2022-12-17T09:24:57;35.08;;;14.45;;
27025;SDS011;14565;48.626;8.978;2022-12-17T09:27:52;33.08;;;16.85;;
27025;SDS011;14565;48.626;8.978;2022-12-17T09:30:39;28.65;;;14.25;;
27025;SDS011;14565;48.626;8.978;2022-12-17T09:33:24;27.65;;;13.63;;
27025;SDS011;14565;48.626;8.978;2022-12-17T09:36:08;35.33;;;15.05;;
27025;SDS011;14565;48.626;8.978;2022-12-17T09:38:53;34.50;;;15.73;;
27025;SDS011;14565;48.626;8.978;2022-12-17T09:41:41;29.27;;;14.40;;
27025;SDS011;14565;48.626;8.978;2022-12-17T09:44:43;34.47;;;16.13;;
27025;SDS011;14565;48.626;8.978;2022-12-17T09:53:06;26.30;;;13.15;;
27025;SDS011;14565;48.626;8.978;2022-12-17T09:55:53;22.98;;;12.32;;
27025;SDS011;14565;48.626;8.978;2022-12-17T09:58:38;57.45;;;19.92;;
27025;SDS011;14565;48.626;8.978;2022-12-17T10:01:24;52.35;;;19.92;;
27025;SDS011;14565;48.626;8.978;2022-12-17T10:04:11;63.03;;;19.92;;
27025;SDS011;14565;48.626;8.978;2022-12-17T10:06:58;117.78;;;21.02;;
27025;SDS011;14565;48.626;8.978;2022-12-17T10:09:44;49.67;;;21.20;;
27025;SDS011;14565;48.626;8.978;2022-12-17T10:12:30;55.63;;;18.92;;
27025;SDS011;14565;48.626;8.978;2022-12-17T10:15:14;70.70;;;20.48;;
27025;SDS011;14565;48.626;8.978;2022-12-17T10:18:06;49.40;;;20.10;;
27025;SDS011;14565;48.626;8.978;2022-12-17T10:20:53;165.18;;;23.35;;
27025;SDS011;14565;48.626;8.978;2022-12-17T10:23:40;85.57;;;22.73;;
27025;SDS011;14565;48.626;8.978;2022-12-17T10:26:25;125.85;;;21.70;;
27025;SDS011;14565;48.626;8.978;2022-12-17T10:29:12;195.98;;;23.92;;
27025;SDS011;14565;48.626;8.978;2022-12-17T10:31:58;61.85;;;21.23;;
27025;SDS011;14565;48.626;8.978;2022-12-17T10:34:44;145.38;;;24.10;;
27025;SDS011;14565;48.626;8.978;2022-12-17T10:37:30;88.35;;;23.60;;
27025;SDS011;14565;48.626;8.978;2022-12-17T10:40:24;57.80;;;20.63;;
27025;SDS011;14565;48.626;8.978;2022-12-17T10:46:10;48.80;;;20.60;;
27025;SDS011;14565;48.626;8.978;2022-12-17T10:49:02;94.43;;;22.25;;
27025;SDS011;14565;48.626;8.978;2022-12-17T10:51:47;95.63;;;23.30;;
27025;SDS011;14565;48.626;8.978;2022-12-17T10:54:32;45.45;;;19.88;;
27025;SDS011;14565;48.626;8.978;2022-12-17T11:00:02;92.00;;;20.85;;
27025;SDS011;14565;48.626;8.978;2022-12-17T11:02:47;89.72;;;19.90;;
27025;SDS011;14565;48.626;8.978;2022-12-17T11:05:33;73.60;;;19.58;;
27025;SDS011;14565;48.626;8.978;2022-12-17T11:08:18;89.13;;;20.80;;
27025;SDS011;14565;48.626;8.978;2022-12-17T11:11:04;78.95;;;20.60;;
27025;SDS011;14565;48.626;8.978;2022-12-17T11:13:50;48.35;;;19.88;;
27025;SDS011;14565;48.626;8.978;2022-12-17T11:16:38;201.77;;;22.23;;
27025;SDS011;14565;48.626;8.978;2022-12-17T11:22:30;74.18;;;22.42;;
27025;SDS011;14565;48.626;8.978;2022-12-17T11:28:05;101.93;;;21.88;;
27025;SDS011;14565;48.626;8.978;2022-12-17T11:31:01;46.53;;;20.42;;
27025;SDS011;14565;48.626;8.978;2022-12-17T11:33:51;129.43;;;23.27;;
27025;SDS011;14565;48.626;8.978;2022-12-17T11:36:40;90.07;;;21.98;;
27025;SDS011;14565;48.626;8.978;2022-12-17T11:39:43;167.25;;;23.67;;
27025;SDS011;14565;48.626;8.978;2022-12-17T11:42:37;195.70;;;26.15;;
27025;SDS011;14565;48.626;8.978;2022-12-17T11:45:30;342.05;;;29.20;;
27025;SDS011;14565;48.626;8.978;2022-12-17T11:48:20;98.47;;;23.40;;
27025;SDS011;14565;48.626;8.978;2022-12-17T11:51:15;276.27;;;28.33;;
27025;SDS011;14565;48.626;8.978;2022-12-17T11:56:56;58.50;;;23.48;;
27025;SDS011;14565;48.626;8.978;2022-12-17T11:59:47;81.13;;;23.92;;
27025;SDS011;14565;48.626;8.978;2022-12-17T12:08:22;65.28;;;25.73;;
27025;SDS011;14565;48.626;8.978;2022-12-17T12:17:31;94.03;;;24.80;;
27025;SDS011;14565;48.626;8.978;2022-12-17T12:20:27;88.88;;;26.30;;
27025;SDS011;14565;48.626;8.978;2022-12-17T12:23:17;55.53;;;22.75;;
27025;SDS011;14565;48.626;8.978;2022-12-17T12:26:15;63.92;;;24.25;;
27025;SDS011;14565;48.626;8.978;2022-12-17T12:29:22;75.60;;;25.38;;
27025;SDS011;14565;48.626;8.978;2022-12-17T12:32:12;60.67;;;23.48;;
27025;SDS011;14565;48.626;8.978;2022-12-17T12:34:58;51.42;;;24.55;;
27025;SDS011;14565;48.626;8.978;2022-12-17T12:37:44;79.32;;;24.30;;
27025;SDS011;14565;48.626;8.978;2022-12-17T12:43:21;69.45;;;23.35;;
27025;SDS011;14565;48.626;8.978;2022-12-17T12:46:14;79.57;;;25.23;;
27025;SDS011;14565;48.626;8.978;2022-12-17T12:49:04;107.00;;;22.25;;
27025;SDS011;14565;48.626;8.978;2022-12-17T12:51:51;153.25;;;23.80;;
27025;SDS011;14565;48.626;8.978;2022-12-17T13:00:37;167.27;;;25.20;;
27025;SDS011;14565;48.626;8.978;2022-12-17T13:03:24;68.65;;;21.45;;
27025;SDS011;14565;48.626;8.978;2022-12-17T13:06:10;125.47;;;24.13;;
27025;SDS011;14565;48.626;8.978;2022-12-17T13:08:37;50.08;;;21.88;;
27025;SDS011;14565;48.626;8.978;2022-12-17T13:11:36;43.25;;;20.63;;
27025;SDS011;14565;48.626;8.978;2022-12-17T13:13:59;66.88;;;23.45;;
27025;SDS011;14565;48.626;8.978;2022-12-17T13:21:43;97.32;;;22.33;;
27025;SDS011;14565;48.626;8.978;2022-12-17T13:24:10;85.05;;;25.25;;
27025;SDS011;14565;48.626;8.978;2022-12-17T13:26:45;130.98;;;23.73;;
27025;SDS011;14565;48.626;8.978;2022-12-17T13:29:22;86.63;;;25.63;;
27025;SDS011;14565;48.626;8.978;2022-12-17T13:34:28;56.72;;;24.83;;
27025;SDS011;14565;48.626;8.978;2022-12-17T13:42:04;100.25;;;23.08;;
27025;SDS011;14565;48.626;8.978;2022-12-17T13:44:34;176.75;;;26.38;;
27025;SDS011;14565;48.626;8.978;2022-12-17T13:47:00;73.32;;;23.70;;
27025;SDS011;14565;48.626;8.978;2022-12-17T13:49:27;174.20;;;24.27;;
27025;SDS011;14565;48.626;8.978;2022-12-17T13:54:29;228.32;;;25.33;;
27025;SDS011;14565;48.626;8.978;2022-12-17T13:57:05;272.55;;;26.58;;
27025;SDS011;14565;48.626;8.978;2022-12-17T13:59:31;80.28;;;25.10;;
27025;SDS011;14565;48.626;8.978;2022-12-17T14:01:57;89.55;;;26.23;;
27025;SDS011;14565;48.626;8.978;2022-12-17T14:04:24;159.35;;;24.02;;
27025;SDS011;14565;48.626;8.978;2022-12-17T14:06:51;59.05;;;22.23;;
27025;SDS011;14565;48.626;8.978;2022-12-17T14:09:18;135.55;;;26.85;;
27025;SDS011;14565;48.626;8.978;2022-12-17T14:11:44;82.95;;;23.98;;
27025;SDS011;14565;48.626;8.978;2022-12-17T14:14:31;136.60;;;25.27;;
27025;SDS011;14565;48.626;8.978;2022-12-17T14:16:58;111.45;;;24.25;;
27025;SDS011;14565;48.626;8.978;2022-12-17T14:19:24;58.42;;;24.30;;
27025;SDS011;14565;48.626;8.978;2022-12-17T14:21:51;173.30;;;28.57;;
27025;SDS011;14565;48.626;8.978;2022-12-17T14:24:18;116.13;;;28.00;;
27025;SDS011;14565;48.626;8.978;2022-12-17T14:26:50;91.55;;;28.50;;
27025;SDS011;14565;48.626;8.978;2022-12-17T14:29:27;82.25;;;28.73;;
27025;SDS011;14565;48.626;8.978;2022-12-17T14:32:00;71.43;;;29.27;;
27025;SDS011;14565;48.626;8.978;2022-12-17T14:34:27;81.68;;;29.55;;
27025;SDS011;14565;48.626;8.978;2022-12-17T14:36:55;167.70;;;28.27;;
27025;SDS011;14565;48.626;8.978;2022-12-17T14:39:23;125.20;;;24.83;;
27025;SDS011;14565;48.626;8.978;2022-12-17T14:41:49;84.60;;;25.33;;
27025;SDS011;14565;48.626;8.978;2022-12-17T14:44:34;95.05;;;26.63;;
27025;SDS011;14565;48.626;8.978;2022-12-17T14:47:22;301.77;;;31.17;;
27025;SDS011;14565;48.626;8.978;2022-12-17T14:52:18;269.90;;;31.17;;
27025;SDS011;14565;48.626;8.978;2022-12-17T14:54:45;385.38;;;32.08;;
27025;SDS011;14565;48.626;8.978;2022-12-17T14:57:18;62.22;;;24.00;;
27025;SDS011;14565;48.626;8.978;2022-12-17T14:59:45;220.73;;;29.92;;
27025;SDS011;14565;48.626;8.978;2022-12-17T15:04:40;246.02;;;30.33;;
27025;SDS011;14565;48.626;8.978;2022-12-17T15:07:06;194.43;;;27.80;;
27025;SDS011;14565;48.626;8.978;2022-12-17T15:09:35;283.20;;;28.00;;
27025;SDS011;14565;48.626;8.978;2022-12-17T15:12:01;100.60;;;22.10;;
27025;SDS011;14565;48.626;8.978;2022-12-17T15:14:27;108.47;;;24.80;;
27025;SDS011;14565;48.626;8.978;2022-12-17T15:16:54;184.40;;;23.58;;
27025;SDS011;14565;48.626;8.978;2022-12-17T15:19:20;44.17;;;21.15;;
27025;SDS011;14565;48.626;8.978;2022-12-17T15:21:46;87.63;;;25.95;;
27025;SDS011;14565;48.626;8.978;2022-12-17T15:24:14;72.65;;;20.38;;
27025;SDS011;14565;48.626;8.978;2022-12-17T15:26:41;112.97;;;21.67;;
27025;SDS011;14565;48.626;8.978;2022-12-17T15:29:07;119.55;;;25.13;;
27025;SDS011;14565;48.626;8.978;2022-12-17T15:31:33;72.47;;;23.52;;
27025;SDS011;14565;48.626;8.978;2022-12-17T15:33:59;137.30;;;26.73;;
27025;SDS011;14565;48.626;8.978;2022-12-17T15:36:25;166.23;;;27.38;;
27025;SDS011;14565;48.626;8.978;2022-12-17T15:38:52;99.82;;;23.48;;
27025;SDS011;14565;48.626;8.978;2022-12-17T15:41:18;119.25;;;24.77;;
27025;SDS011;14565;48.626;8.978;2022-12-17T15:44:02;96.65;;;26.27;;
27025;SDS011;14565;48.626;8.978;2022-12-17T15:46:28;83.60;;;27.38;;
27025;SDS011;14565;48.626;8.978;2022-12-17T15:48:55;220.82;;;30.00;;
27025;SDS011;14565;48.626;8.978;2022-12-17T15:51:21;145.98;;;29.48;;
27025;SDS011;14565;48.626;8.978;2022-12-17T15:53:48;93.45;;;28.08;;
27025;SDS011;14565;48.626;8.978;2022-12-17T15:56:16;206.60;;;29.98;;
27025;SDS011;14565;48.626;8.978;2022-12-17T15:58:43;200.75;;;31.08;;
27025;SDS011;14565;48.626;8.978;2022-12-17T16:01:09;413.77;;;33.30;;
27025;SDS011;14565;48.626;8.978;2022-12-17T16:03:35;275.08;;;32.13;;
27025;SDS011;14565;48.626;8.978;2022-12-17T16:06:01;129.80;;;30.63;;
27025;SDS011;14565;48.626;8.978;2022-12-17T16:08:27;172.07;;;31.48;;
27025;SDS011;14565;48.626;8.978;2022-12-17T16:10:53;116.00;;;29.33;;
27025;SDS011;14565;48.626;8.978;2022-12-17T16:13:19;115.47;;;28.90;;
27025;SDS011;14565;48.626;8.978;2022-12-17T16:15:45;59.30;;;22.75;;
27025;SDS011;14565;48.626;8.978;2022-12-17T16:18:19;47.47;;;21.30;;
27025;SDS011;14565;48.626;8.978;2022-12-17T16:23:13;47.22;;;20.30;;
27025;SDS011;14565;48.626;8.978;2022-12-17T16:25:39;51.97;;;21.38;;
27025;SDS011;14565;48.626;8.978;2022-12-17T16:28:05;54.15;;;21.33;;
27025;SDS011;14565;48.626;8.978;2022-12-17T16:30:31;50.67;;;22.13;;
27025;SDS011;14565;48.626;8.978;2022-12-17T16:32:57;51.45;;;22.20;;
27025;SDS011;14565;48.626;8.978;2022-12-17T16:35:24;66.50;;;26.33;;
27025;SDS011;14565;48.626;8.978;2022-12-17T16:37:50;64.90;;;26.50;;
27025;SDS011;14565;48.626;8.978;2022-12-17T16:40:16;85.47;;;28.55;;
27025;SDS011;14565;48.626;8.978;2022-12-17T16:42:42;108.70;;;31.45;;
27025;SDS011;14565;48.626;8.978;2022-12-17T16:45:08;104.93;;;33.75;;
27025;SDS011;14565;48.626;8.978;2022-12-17T16:47:34;121.60;;;36.25;;
27025;SDS011;14565;48.626;8.978;2022-12-17T16:50:00;101.90;;;35.60;;
27025;SDS011;14565;48.626;8.978;2022-12-17T16:52:26;100.68;;;33.47;;
27025;SDS011;14565;48.626;8.978;2022-12-17T16:54:52;89.68;;;32.80;;
27025;SDS011;14565;48.626;8.978;2022-12-17T16:57:18;83.82;;;30.58;;
27025;SDS011;14565;48.626;8.978;2022-12-17T16:59:44;86.55;;;30.80;;